Time;durP1;ratioP1;P1;durP2;ratioP2;P2;SDS_P1;SDS_P2;PMS_P1;PMS_P2;Temp;Humidity;BMP_temperature;BMP_pressure;BME280_temperature;BME280_humidity;BME280_pressure;Samples;Min_cycle;Max_cycle;Signal;HPM_P1;HPM_P2
2024/01/05 00:00:25;;;;;;;11.95;5.68;;;2.20;99.90;;;;;;5122162;28;20071;-83
2024/01/05 00:02:54;;;;;;;9.75;5.30;;;2.60;99.90;;;;;;5112197;28;20070;-83
2024/01/05 00:05:20;;;;;;;14.48;5.22;;;2.20;99.90;;;;;;5138893;28;20064;-84
2024/01/05 00:07:47;;;;;;;12.43;6.00;;;2.20;99.90;;;;;;5124151;28;20048;-84
2024/01/05 00:10:14;;;;;;;11.15;5.80;;;2.20;99.90;;;;;;5136325;28;20032;-83
2024/01/05 00:12:40;;;;;;;11.95;6.00;;;2.30;99.90;;;;;;5136193;28;20481;-83
2024/01/05 00:15:07;;;;;;;12.77;6.03;;;2.30;99.90;;;;;;5139279;28;20036;-83
2024/01/05 00:17:34;;;;;;;11.30;5.75;;;2.30;99.90;;;;;;5110862;28;20082;-83
2024/01/05 00:20:01;;;;;;;15.30;5.82;;;2.30;99.90;;;;;;5127258;28;20504;-83
2024/01/05 00:22:27;;;;;;;11.15;6.13;;;2.20;99.90;;;;;;5115372;28;20447;-83
2024/01/05 00:24:54;;;;;;;10.60;5.97;;;2.20;99.90;;;;;;5139962;28;20039;-83
2024/01/05 00:27:21;;;;;;;12.82;5.97;;;2.80;99.90;;;;;;5124066;28;20043;-83
2024/01/05 00:29:47;;;;;;;11.27;6.22;;;2.20;99.90;;;;;;5121986;28;20035;-83
2024/01/05 00:32:14;;;;;;;12.38;5.60;;;2.20;99.90;;;;;;5123457;28;20039;-83
2024/01/05 00:34:41;;;;;;;9.90;5.40;;;2.70;99.90;;;;;;5114908;28;20077;-83
2024/01/05 00:37:07;;;;;;;9.77;5.60;;;2.20;99.90;;;;;;5119290;28;20039;-83
2024/01/05 00:39:34;;;;;;;9.40;5.43;;;2.20;99.90;;;;;;5119479;28;20549;-83
2024/01/05 00:42:04;;;;;;;11.65;4.95;;;2.20;99.90;;;;;;5133711;28;20122;-83
2024/01/05 00:44:31;;;;;;;12.13;5.65;;;2.20;99.90;;;;;;5123590;28;20032;-83
2024/01/05 00:46:57;;;;;;;11.30;4.97;;;2.20;99.90;;;;;;5112712;28;20051;-83
2024/01/05 00:49:24;;;;;;;11.07;5.15;;;3.10;99.90;;;;;;5131719;28;20413;-83
2024/01/05 00:51:50;;;;;;;10.95;5.22;;;2.20;99.90;;;;;;5116986;28;20074;-83
2024/01/05 00:54:17;;;;;;;9.40;5.20;;;2.40;99.90;;;;;;5120505;28;20478;-83
2024/01/05 00:56:44;;;;;;;9.05;4.88;;;2.20;99.90;;;;;;5109293;28;20028;-84
2024/01/05 00:59:11;;;;;;;11.88;5.30;;;2.20;99.90;;;;;;5110852;28;20094;-83
2024/01/05 01:01:38;;;;;;;10.85;5.30;;;2.20;99.90;;;;;;5116246;28;20814;-83
2024/01/05 01:04:04;;;;;;;10.25;5.28;;;2.20;99.90;;;;;;5121245;28;20047;-83
2024/01/05 01:06:31;;;;;;;8.63;4.50;;;2.20;99.90;;;;;;5123458;28;20520;-83
2024/01/05 01:08:58;;;;;;;12.20;4.85;;;2.20;99.90;;;;;;5136831;28;20047;-83
2024/01/05 01:11:24;;;;;;;10.30;4.72;;;2.80;99.90;;;;;;5132495;28;20028;-83
2024/01/05 01:13:51;;;;;;;12.70;5.45;;;3.00;99.90;;;;;;5128686;28;20067;-83
2024/01/05 01:16:18;;;;;;;10.20;4.85;;;2.20;99.90;;;;;;5118498;28;20082;-83
2024/01/05 01:18:44;;;;;;;10.38;4.85;;;2.20;99.90;;;;;;5111743;28;20115;-83
2024/01/05 01:21:11;;;;;;;10.80;5.05;;;2.20;99.90;;;;;;5111990;28;20036;-83
2024/01/05 01:23:38;;;;;;;9.35;4.95;;;2.20;99.90;;;;;;5115687;28;20039;-83
2024/01/05 01:26:04;;;;;;;13.52;5.72;;;2.20;99.90;;;;;;5135274;28;20036;-83
2024/01/05 01:28:31;;;;;;;10.77;5.28;;;2.30;99.90;;;;;;5117927;28;20476;-83
2024/01/05 01:30:57;;;;;;;12.18;5.05;;;2.70;99.90;;;;;;5121120;28;20166;-83
2024/01/05 01:33:24;;;;;;;10.60;4.90;;;2.60;99.90;;;;;;5114703;28;20399;-83
2024/01/05 01:35:51;;;;;;;10.27;4.38;;;3.20;99.90;;;;;;5124249;28;20050;-84
2024/01/05 01:38:17;;;;;;;11.35;5.43;;;2.20;99.90;;;;;;5125919;28;20126;-84
2024/01/05 01:40:47;;;;;;;11.15;5.05;;;2.20;99.90;;;;;;5109511;28;20040;-83
2024/01/05 01:43:19;;;;;;;10.18;4.90;;;2.20;99.90;;;;;;5115211;28;20036;-83
2024/01/05 01:45:46;;;;;;;11.30;5.10;;;2.20;99.90;;;;;;5114196;28;20036;-83
2024/01/05 01:48:16;;;;;;;10.45;5.25;;;2.20;99.90;;;;;;5128686;28;20396;-83
2024/01/05 01:50:43;;;;;;;12.63;5.57;;;2.20;99.90;;;;;;5140494;28;20395;-83
2024/01/05 01:53:11;;;;;;;11.75;5.15;;;2.30;99.90;;;;;;5118982;28;20039;-83
2024/01/05 01:55:37;;;;;;;10.95;4.80;;;2.20;99.90;;;;;;5113224;28;20040;-83
2024/01/05 01:58:04;;;;;;;11.20;5.50;;;3.10;99.90;;;;;;5122454;28;20035;-83
2024/01/05 02:00:32;;;;;;;12.77;5.80;;;2.20;99.90;;;;;;5123097;28;20079;-83
2024/01/05 02:03:00;;;;;;;12.73;5.25;;;2.20;99.90;;;;;;5122948;28;20071;-83
2024/01/05 02:05:28;;;;;;;11.45;5.53;;;2.20;99.90;;;;;;5139410;28;20099;-83
2024/01/05 02:07:56;;;;;;;12.27;5.68;;;2.20;99.90;;;;;;5123525;28;20043;-83
2024/01/05 02:10:23;;;;;;;11.05;5.45;;;2.20;99.90;;;;;;5118717;28;20078;-83
2024/01/05 02:12:50;;;;;;;11.52;5.75;;;2.20;99.90;;;;;;5114664;28;20032;-83
2024/01/05 02:15:18;;;;;;;14.02;5.68;;;2.90;99.90;;;;;;5134449;28;20122;-83
2024/01/05 02:17:45;;;;;;;14.57;5.65;;;2.30;99.90;;;;;;5122517;28;20038;-83
2024/01/05 02:20:12;;;;;;;13.60;5.63;;;2.20;99.90;;;;;;5129413;28;20044;-83
2024/01/05 02:22:46;;;;;;;11.18;5.15;;;2.20;99.90;;;;;;5129531;28;20121;-83
2024/01/05 02:25:13;;;;;;;12.98;6.05;;;2.60;99.90;;;;;;5125703;28;20046;-83
2024/01/05 02:27:40;;;;;;;10.88;5.78;;;2.20;99.90;;;;;;5112624;28;20032;-83
2024/01/05 02:30:07;;;;;;;12.52;5.55;;;2.20;99.90;;;;;;5145352;28;20040;-83
2024/01/05 02:32:33;;;;;;;12.15;5.30;;;2.20;99.90;;;;;;5120076;28;20488;-83
2024/01/05 02:35:00;;;;;;;12.63;5.80;;;2.10;99.90;;;;;;5137132;28;20072;-83
2024/01/05 02:37:29;;;;;;;11.73;5.78;;;2.50;99.90;;;;;;5141357;28;20115;-83
2024/01/05 02:39:55;;;;;;;12.82;6.03;;;2.10;99.90;;;;;;5117424;28;20067;-82
2024/01/05 02:42:22;;;;;;;14.30;5.70;;;2.10;99.90;;;;;;5119542;28;20059;-83
2024/01/05 02:44:48;;;;;;;14.90;5.45;;;2.10;99.90;;;;;;5121508;28;20040;-83
2024/01/05 02:47:15;;;;;;;15.27;5.97;;;2.20;99.90;;;;;;5127050;28;20028;-83
2024/01/05 02:49:42;;;;;;;14.52;5.97;;;2.10;99.90;;;;;;5120124;28;20057;-83
2024/01/05 02:52:08;;;;;;;13.63;5.88;;;2.00;99.90;;;;;;5144523;28;20062;-82
2024/01/05 02:54:37;;;;;;;14.40;6.40;;;2.00;99.90;;;;;;5122388;28;20045;-82
2024/01/05 02:57:04;;;;;;;14.18;6.47;;;2.00;99.90;;;;;;5131286;28;20041;-82
2024/01/05 02:59:30;;;;;;;13.90;6.57;;;2.00;99.90;;;;;;5121460;28;20114;-83
2024/01/05 03:01:57;;;;;;;15.93;6.32;;;3.00;99.90;;;;;;5131092;28;20044;-83
2024/01/05 03:04:24;;;;;;;13.57;6.40;;;2.00;99.90;;;;;;5126318;28;20100;-83
2024/01/05 03:06:50;;;;;;;16.58;6.85;;;2.00;99.90;;;;;;5121208;28;20052;-83
2024/01/05 03:09:17;;;;;;;15.45;6.70;;;2.00;99.90;;;;;;5124571;28;20488;-83
2024/01/05 03:11:43;;;;;;;15.10;6.05;;;2.00;99.90;;;;;;5137197;28;20032;-82
2024/01/05 03:14:10;;;;;;;16.75;6.63;;;2.80;99.90;;;;;;5121097;28;20028;-83
2024/01/05 03:16:37;;;;;;;15.52;6.55;;;2.40;99.90;;;;;;5111461;28;20434;-83
2024/01/05 03:19:03;;;;;;;12.02;6.22;;;2.00;99.90;;;;;;5122830;28;20035;-82
2024/01/05 03:21:30;;;;;;;14.52;6.25;;;2.10;99.90;;;;;;5112282;28;20039;-83
2024/01/05 03:23:56;;;;;;;13.00;5.97;;;2.00;99.90;;;;;;5111501;28;20058;-83
2024/01/05 03:26:23;;;;;;;13.70;6.40;;;2.00;99.90;;;;;;5122001;28;20035;-83
2024/01/05 03:28:50;;;;;;;12.48;5.72;;;2.00;99.90;;;;;;5120360;28;20431;-83
2024/01/05 03:31:16;;;;;;;15.13;6.07;;;2.90;99.90;;;;;;5122646;28;20039;-82
2024/01/05 03:33:44;;;;;;;13.63;6.30;;;2.00;99.90;;;;;;5114238;28;20028;-83
2024/01/05 03:36:11;;;;;;;15.25;6.40;;;2.00;99.90;;;;;;5125488;28;20035;-82
2024/01/05 03:38:38;;;;;;;14.50;6.32;;;2.00;99.90;;;;;;5118603;28;20043;-83
2024/01/05 03:41:04;;;;;;;12.45;6.38;;;2.00;99.90;;;;;;5125277;28;20050;-82
2024/01/05 03:43:31;;;;;;;13.27;5.85;;;2.00;99.90;;;;;;5129686;28;20115;-82
2024/01/05 03:45:57;;;;;;;13.57;6.18;;;2.10;99.90;;;;;;5125440;28;20044;-82
2024/01/05 03:48:24;;;;;;;17.73;6.40;;;2.00;99.90;;;;;;5124072;28;20040;-82
2024/01/05 03:50:51;;;;;;;12.18;5.78;;;2.00;99.90;;;;;;5130275;28;20093;-82
2024/01/05 03:53:17;;;;;;;12.35;5.72;;;2.00;99.90;;;;;;5116308;28;20035;-82
2024/01/05 03:55:44;;;;;;;15.63;6.43;;;2.00;99.90;;;;;;5126030;28;20032;-82
2024/01/05 03:58:11;;;;;;;18.63;6.45;;;2.20;99.90;;;;;;5121750;28;20040;-83
2024/01/05 04:00:37;;;;;;;12.98;6.28;;;2.00;99.90;;;;;;5120859;28;20130;-82
2024/01/05 04:03:04;;;;;;;13.25;6.05;;;2.00;99.90;;;;;;5123459;28;20036;-82
2024/01/05 04:05:30;;;;;;;15.25;5.90;;;2.00;99.90;;;;;;5128025;28;20388;-82
2024/01/05 04:07:57;;;;;;;14.40;6.05;;;2.50;99.90;;;;;;5113071;28;20048;-82
2024/01/05 04:10:24;;;;;;;17.95;6.15;;;2.00;99.90;;;;;;5117908;28;20051;-82
2024/01/05 04:12:50;;;;;;;13.68;6.25;;;2.00;99.90;;;;;;5117568;28;20093;-83
2024/01/05 04:15:17;;;;;;;12.50;5.72;;;2.70;99.90;;;;;;5119713;28;20036;-82
2024/01/05 04:17:43;;;;;;;13.50;5.78;;;2.90;99.90;;;;;;5114347;28;20070;-82
2024/01/05 04:20:11;;;;;;;12.00;5.88;;;2.40;99.90;;;;;;5118121;28;20028;-82
2024/01/05 04:22:37;;;;;;;11.13;5.55;;;2.00;99.90;;;;;;5126789;28;20045;-82
2024/01/05 04:25:04;;;;;;;13.48;5.78;;;2.00;99.90;;;;;;5123447;28;20392;-82
2024/01/05 04:27:31;;;;;;;11.10;4.78;;;2.00;99.90;;;;;;5114434;28;20438;-82
2024/01/05 04:29:58;;;;;;;12.00;5.00;;;2.00;99.90;;;;;;5124428;28;20157;-82
2024/01/05 04:32:24;;;;;;;15.30;6.30;;;2.00;99.90;;;;;;5139906;28;20050;-83
2024/01/05 04:34:51;;;;;;;12.57;5.75;;;2.00;99.90;;;;;;5112989;28;20044;-82
2024/01/05 04:37:17;;;;;;;12.93;5.15;;;2.00;99.90;;;;;;5115444;28;20178;-82
2024/01/05 04:39:45;;;;;;;11.18;5.45;;;2.00;99.90;;;;;;5122196;28;20032;-82
2024/01/05 04:42:12;;;;;;;12.10;5.63;;;2.10;99.90;;;;;;5129805;28;20042;-82
2024/01/05 04:44:38;;;;;;;10.63;5.30;;;2.00;99.90;;;;;;5128628;28;20031;-82
2024/01/05 04:47:05;;;;;;;11.77;4.95;;;2.00;99.90;;;;;;5130379;28;20050;-82
2024/01/05 04:49:33;;;;;;;11.00;5.22;;;2.00;99.90;;;;;;5142253;28;20044;-82
2024/01/05 04:52:01;;;;;;;13.38;4.95;;;2.00;99.90;;;;;;5131463;28;20032;-82
2024/01/05 04:54:27;;;;;;;11.95;5.25;;;2.00;99.90;;;;;;5120522;28;20043;-82
2024/01/05 04:56:54;;;;;;;12.88;5.80;;;2.00;99.90;;;;;;5138787;28;20408;-82
2024/01/05 04:59:22;;;;;;;14.10;5.63;;;2.00;99.90;;;;;;5129200;28;20043;-82
2024/01/05 05:01:49;;;;;;;14.27;5.40;;;2.00;99.90;;;;;;5122875;28;20407;-82
2024/01/05 05:04:17;;;;;;;10.90;5.03;;;2.10;99.90;;;;;;5110554;28;20035;-82
2024/01/05 05:06:44;;;;;;;12.00;5.13;;;2.00;99.90;;;;;;5120634;28;20525;-82
2024/01/05 05:09:12;;;;;;;12.48;5.00;;;2.90;99.90;;;;;;5131976;28;20420;-82
2024/01/05 05:11:42;;;;;;;10.65;5.07;;;2.10;99.90;;;;;;5115861;28;20121;-82
2024/01/05 05:14:09;;;;;;;12.20;5.28;;;2.10;99.90;;;;;;5119287;28;20127;-82
2024/01/05 05:16:35;;;;;;;11.77;4.97;;;2.10;99.90;;;;;;5133662;28;20119;-82
2024/01/05 05:19:02;;;;;;;11.65;5.85;;;2.10;99.90;;;;;;5115442;28;20549;-82
2024/01/05 05:21:29;;;;;;;11.13;5.05;;;2.10;99.90;;;;;;5134391;28;20123;-83
2024/01/05 05:23:55;;;;;;;11.05;5.25;;;2.10;99.90;;;;;;5121606;28;20123;-82
2024/01/05 05:26:23;;;;;;;11.85;5.00;;;2.10;99.90;;;;;;5139523;28;20036;-82
2024/01/05 05:28:49;;;;;;;11.38;5.53;;;2.10;99.90;;;;;;5122262;28;20035;-82
2024/01/05 05:31:16;;;;;;;10.23;5.22;;;2.10;99.90;;;;;;5119577;28;20114;-82
2024/01/05 05:33:42;;;;;;;9.90;4.85;;;2.10;99.90;;;;;;5135769;28;20036;-82
2024/01/05 05:36:09;;;;;;;12.20;5.57;;;2.10;99.90;;;;;;5132090;28;20028;-82
2024/01/05 05:38:36;;;;;;;11.30;5.70;;;2.20;99.90;;;;;;5138057;28;20031;-82
2024/01/05 05:41:02;;;;;;;14.40;5.60;;;2.10;99.90;;;;;;5118978;28;20039;-82
2024/01/05 05:43:29;;;;;;;11.57;5.70;;;2.10;99.90;;;;;;5116977;28;20491;-82
2024/01/05 05:45:56;;;;;;;11.93;5.80;;;2.10;99.90;;;;;;5135834;28;20064;-82
2024/01/05 05:48:23;;;;;;;11.10;5.40;;;2.20;99.90;;;;;;5136136;28;20134;-82
2024/01/05 05:50:50;;;;;;;12.60;6.10;;;2.10;99.90;;;;;;5118534;28;20441;-82
2024/01/05 05:53:17;;;;;;;11.52;5.75;;;2.20;99.90;;;;;;5122109;28;20086;-82
2024/01/05 05:55:43;;;;;;;16.67;5.93;;;2.90;99.90;;;;;;5118806;28;20031;-82
2024/01/05 05:58:10;;;;;;;10.85;5.90;;;2.10;99.90;;;;;;5114017;28;20043;-82
2024/01/05 06:00:37;;;;;;;11.73;5.68;;;2.20;99.90;;;;;;5120552;28;20113;-82
2024/01/05 06:03:06;;;;;;;12.52;5.50;;;2.20;99.90;;;;;;5141779;28;20071;-82
2024/01/05 06:05:32;;;;;;;11.07;5.25;;;2.20;99.90;;;;;;5120144;28;20398;-83
2024/01/05 06:07:59;;;;;;;12.75;5.32;;;2.20;99.90;;;;;;5121224;28;20051;-83
2024/01/05 06:10:25;;;;;;;11.15;5.32;;;2.20;99.90;;;;;;5123383;28;20037;-83
2024/01/05 06:12:52;;;;;;;11.75;5.47;;;2.30;99.90;;;;;;5117923;28;20033;-82
2024/01/05 06:15:19;;;;;;;9.73;5.13;;;2.20;99.90;;;;;;5137484;28;20042;-83
2024/01/05 06:17:45;;;;;;;12.18;5.07;;;2.20;99.90;;;;;;5137245;28;20039;-82
2024/01/05 06:20:12;;;;;;;10.63;4.95;;;2.20;99.90;;;;;;5132754;28;20036;-83
2024/01/05 06:22:38;;;;;;;11.48;4.65;;;2.20;99.90;;;;;;5117687;28;20040;-82
2024/01/05 06:25:05;;;;;;;10.45;4.80;;;2.30;99.90;;;;;;5117498;28;20123;-82
2024/01/05 06:27:32;;;;;;;10.00;4.75;;;2.30;99.90;;;;;;5114627;28;20036;-83
2024/01/05 06:29:59;;;;;;;7.97;3.67;;;2.30;99.90;;;;;;5135390;28;20092;-82
2024/01/05 06:32:25;;;;;;;9.18;4.53;;;2.30;99.90;;;;;;5122408;28;20127;-82
2024/01/05 06:34:52;;;;;;;9.55;4.78;;;2.20;99.90;;;;;;5124586;28;20547;-82
2024/01/05 06:37:19;;;;;;;9.38;4.57;;;2.30;99.90;;;;;;5130887;28;20485;-82
2024/01/05 06:39:45;;;;;;;11.43;4.55;;;3.10;99.90;;;;;;5138866;28;20461;-82
2024/01/05 06:42:12;;;;;;;8.57;4.47;;;2.30;99.90;;;;;;5123174;28;20123;-82
2024/01/05 06:44:38;;;;;;;10.73;5.30;;;2.30;99.90;;;;;;5119403;28;20074;-82
2024/01/05 06:47:05;;;;;;;11.30;4.82;;;3.30;99.90;;;;;;5131796;28;20127;-83
2024/01/05 06:49:32;;;;;;;9.65;5.00;;;2.30;99.90;;;;;;5115439;28;20063;-83
2024/01/05 06:51:58;;;;;;;12.02;5.97;;;2.30;99.90;;;;;;5116259;28;20105;-83
2024/01/05 06:54:25;;;;;;;9.23;5.07;;;2.30;99.90;;;;;;5116845;28;20082;-83
2024/01/05 06:56:52;;;;;;;13.95;5.68;;;2.30;99.90;;;;;;5135190;28;20097;-82
2024/01/05 06:59:20;;;;;;;11.73;5.43;;;2.40;99.90;;;;;;5120400;28;20044;-83
2024/01/05 07:01:46;;;;;;;11.60;6.32;;;2.40;99.90;;;;;;5120901;28;20730;-83
2024/01/05 07:04:15;;;;;;;14.00;6.07;;;2.40;99.90;;;;;;5140593;28;20051;-82
2024/01/05 07:06:42;;;;;;;12.10;6.20;;;2.40;99.90;;;;;;5113514;28;20074;-82
2024/01/05 07:09:09;;;;;;;13.15;6.10;;;2.40;99.90;;;;;;5118575;28;20027;-82
2024/01/05 07:11:35;;;;;;;13.90;6.07;;;2.90;99.90;;;;;;5118056;28;20122;-82
2024/01/05 07:14:02;;;;;;;12.65;6.15;;;2.40;99.90;;;;;;5115701;28;20036;-82
2024/01/05 07:16:28;;;;;;;14.95;6.70;;;2.40;99.90;;;;;;5131553;28;20028;-82
2024/01/05 07:18:55;;;;;;;13.48;6.45;;;2.40;99.90;;;;;;5112065;28;20071;-82
2024/01/05 07:21:22;;;;;;;12.13;6.75;;;2.40;99.90;;;;;;5131232;28;20475;-82
2024/01/05 07:23:49;;;;;;;14.60;6.53;;;2.70;99.90;;;;;;5126517;28;20115;-82
2024/01/05 07:26:21;;;;;;;13.70;6.70;;;2.40;99.90;;;;;;5136796;28;20032;-82
2024/01/05 07:28:47;;;;;;;15.32;7.05;;;2.90;99.90;;;;;;5117789;28;20480;-81
2024/01/05 07:31:14;;;;;;;16.83;7.25;;;2.40;99.90;;;;;;5112115;28;20043;-82
2024/01/05 07:33:41;;;;;;;20.17;7.95;;;2.50;99.90;;;;;;5130567;28;20484;-82
2024/01/05 07:36:07;;;;;;;14.65;7.13;;;2.50;99.90;;;;;;5121131;28;20508;-82
2024/01/05 07:38:37;;;;;;;17.23;8.05;;;2.50;99.90;;;;;;5121487;28;20062;-82
2024/01/05 07:41:04;;;;;;;17.23;7.57;;;2.50;99.90;;;;;;5141040;28;20031;-81
2024/01/05 07:43:31;;;;;;;14.68;6.82;;;2.50;99.90;;;;;;5122689;28;20040;-82
2024/01/05 07:45:57;;;;;;;18.13;7.70;;;2.50;99.90;;;;;;5122073;28;20046;-82
2024/01/05 07:48:24;;;;;;;15.55;7.53;;;2.50;99.90;;;;;;5128554;28;20040;-82
2024/01/05 07:50:51;;;;;;;14.82;8.27;;;2.50;99.90;;;;;;5134022;28;20035;-83
2024/01/05 07:53:17;;;;;;;17.35;8.48;;;2.60;99.90;;;;;;5146477;28;20032;-81
2024/01/05 07:55:44;;;;;;;16.45;8.45;;;2.60;99.90;;;;;;5116052;28;20031;-81
2024/01/05 07:58:11;;;;;;;16.27;8.50;;;2.60;99.90;;;;;;5129474;28;20119;-81
2024/01/05 08:00:37;;;;;;;18.00;8.65;;;2.60;99.90;;;;;;5110399;28;20044;-82
2024/01/05 08:03:05;;;;;;;17.02;9.20;;;2.60;99.90;;;;;;5119175;28;20507;-82
2024/01/05 08:05:32;;;;;;;17.17;9.10;;;2.60;99.90;;;;;;5129472;28;20044;-82
2024/01/05 08:07:58;;;;;;;16.75;9.02;;;2.70;99.90;;;;;;5129266;28;20409;-82
2024/01/05 08:10:26;;;;;;;20.50;9.23;;;2.70;99.90;;;;;;5129704;28;20040;-83
2024/01/05 08:12:54;;;;;;;16.77;8.88;;;2.70;99.90;;;;;;5112038;28;20036;-82
2024/01/05 08:15:21;;;;;;;15.75;8.77;;;2.70;99.90;;;;;;5133972;28;20032;-82
2024/01/05 08:17:47;;;;;;;18.20;9.13;;;2.80;99.90;;;;;;5113117;28;20542;-82
2024/01/05 08:20:15;;;;;;;17.23;9.20;;;2.70;99.90;;;;;;5128490;28;20047;-82
2024/01/05 08:22:41;;;;;;;17.38;9.02;;;2.70;99.90;;;;;;5111725;28;20051;-82
2024/01/05 08:25:08;;;;;;;22.25;9.30;;;2.80;99.90;;;;;;5115004;28;20040;-82
2024/01/05 08:27:35;;;;;;;18.08;9.00;;;3.70;99.90;;;;;;5137334;28;20065;-82
2024/01/05 08:30:01;;;;;;;21.65;10.70;;;3.60;99.90;;;;;;5114453;28;20114;-83
2024/01/05 08:32:28;;;;;;;22.23;9.73;;;2.90;99.90;;;;;;5118929;28;20032;-81
2024/01/05 08:34:54;;;;;;;20.40;9.82;;;2.90;99.90;;;;;;5118487;28;20119;-81
2024/01/05 08:37:21;;;;;;;20.88;9.70;;;2.90;99.90;;;;;;5124482;28;20381;-83
2024/01/05 08:39:48;;;;;;;20.10;9.95;;;3.80;99.90;;;;;;5118997;28;20047;-83
2024/01/05 08:42:14;;;;;;;18.77;9.27;;;2.90;99.90;;;;;;5125861;28;20051;-83
2024/01/05 08:44:41;;;;;;;19.38;9.45;;;3.00;99.90;;;;;;5132585;28;20036;-83
2024/01/05 08:47:07;;;;;;;17.25;8.88;;;2.90;99.90;;;;;;5114715;28;20043;-82
2024/01/05 08:49:34;;;;;;;19.23;9.57;;;3.00;99.90;;;;;;5118530;28;20032;-83
2024/01/05 08:52:01;;;;;;;19.38;9.63;;;3.00;99.90;;;;;;5117081;28;20039;-83
2024/01/05 08:54:28;;;;;;;19.85;9.75;;;3.00;99.90;;;;;;5128152;28;20048;-82
2024/01/05 08:56:54;;;;;;;18.58;9.05;;;3.00;99.90;;;;;;5123712;28;20120;-81
2024/01/05 08:59:21;;;;;;;19.23;9.52;;;3.40;99.90;;;;;;5141201;28;20039;-82
2024/01/05 09:01:47;;;;;;;19.08;9.80;;;3.20;99.90;;;;;;5127014;28;20058;-82
2024/01/05 09:04:14;;;;;;;21.30;10.68;;;3.10;99.90;;;;;;5126530;28;20039;-82
2024/01/05 09:06:42;;;;;;;22.70;10.35;;;3.10;99.90;;;;;;5136060;28;20512;-82
2024/01/05 09:09:10;;;;;;;21.27;10.50;;;3.10;99.90;;;;;;5122729;28;20496;-81
2024/01/05 09:11:39;;;;;;;18.48;8.85;;;3.20;99.90;;;;;;5126507;28;20475;-82
2024/01/05 09:14:06;;;;;;;20.90;10.38;;;3.10;99.90;;;;;;5123359;28;20051;-82
2024/01/05 09:16:33;;;;;;;18.20;9.68;;;3.20;99.90;;;;;;5142473;28;20097;-82
2024/01/05 09:19:00;;;;;;;25.92;10.25;;;3.20;99.90;;;;;;5142595;28;20039;-82
2024/01/05 09:21:26;;;;;;;20.85;9.15;;;3.20;99.90;;;;;;5144309;28;20050;-82
2024/01/05 09:23:53;;;;;;;21.17;10.15;;;3.20;99.90;;;;;;5121817;28;20922;-82
2024/01/05 09:26:20;;;;;;;23.30;10.30;;;3.20;99.90;;;;;;5130835;28;20031;-82
2024/01/05 09:28:46;;;;;;;22.67;9.80;;;3.20;99.90;;;;;;5137443;28;20059;-82
2024/01/05 09:31:13;;;;;;;22.27;10.30;;;3.20;99.90;;;;;;5140257;28;20036;-81
2024/01/05 09:33:40;;;;;;;19.92;9.57;;;3.20;99.90;;;;;;5127215;28;20040;-79
2024/01/05 09:36:07;;;;;;;22.45;10.30;;;3.30;99.90;;;;;;5126244;28;20043;-79
2024/01/05 09:38:35;;;;;;;18.67;8.98;;;3.30;99.90;;;;;;5135841;28;20619;-79
2024/01/05 09:41:02;;;;;;;18.00;9.27;;;3.30;99.90;;;;;;5122540;28;20047;-79
2024/01/05 09:43:31;;;;;;;18.27;8.57;;;3.30;99.90;;;;;;5126948;28;20035;-79
2024/01/05 09:45:58;;;;;;;15.50;8.57;;;3.30;99.90;;;;;;5143294;28;20035;-79
2024/01/05 09:48:25;;;;;;;17.42;8.93;;;3.30;99.90;;;;;;5129435;28;20050;-79
2024/01/05 09:50:55;;;;;;;17.50;8.57;;;4.10;99.90;;;;;;5119522;28;20039;-79
2024/01/05 09:53:21;;;;;;;17.95;8.60;;;3.30;99.90;;;;;;5116302;28;20043;-79
2024/01/05 09:55:49;;;;;;;16.42;9.05;;;3.30;99.90;;;;;;5139599;28;20408;-79
2024/01/05 09:58:17;;;;;;;21.88;9.68;;;3.40;99.90;;;;;;5129504;28;20040;-79
2024/01/05 10:00:49;;;;;;;22.40;9.13;;;3.40;99.90;;;;;;5115144;28;20032;-79
2024/01/05 10:03:26;;;;;;;21.77;9.38;;;3.40;99.90;;;;;;5127447;28;20031;-79
2024/01/05 10:05:53;;;;;;;19.67;9.38;;;4.30;99.90;;;;;;5121916;28;20055;-79
2024/01/05 10:08:23;;;;;;;18.45;8.68;;;3.40;99.90;;;;;;5127941;28;20039;-79
2024/01/05 10:10:57;;;;;;;16.60;9.23;;;4.20;99.90;;;;;;5121375;28;20031;-79
2024/01/05 10:13:23;;;;;;;20.35;9.40;;;3.40;99.90;;;;;;5129801;28;20036;-79
2024/01/05 10:16:00;;;;;;;20.92;10.18;;;3.50;99.90;;;;;;5146527;28;20085;-79
2024/01/05 10:18:30;;;;;;;19.88;9.35;;;3.50;99.90;;;;;;5122705;28;20046;-79
2024/01/05 10:21:10;;;;;;;18.10;9.52;;;3.90;99.90;;;;;;5117155;28;20035;-79
2024/01/05 10:23:43;;;;;;;20.52;9.55;;;3.50;99.90;;;;;;5127467;28;20452;-79
2024/01/05 10:26:18;;;;;;;19.35;9.68;;;3.60;99.90;;;;;;5125159;28;20075;-79
2024/01/05 10:28:47;;;;;;;19.27;9.20;;;4.10;99.90;;;;;;5132726;28;20497;-78
2024/01/05 10:31:15;;;;;;;24.60;10.80;;;3.60;99.90;;;;;;5142692;28;20452;-79
2024/01/05 10:33:52;;;;;;;23.15;10.50;;;3.60;99.90;;;;;;5119210;28;20491;-78
2024/01/05 10:36:23;;;;;;;19.00;9.52;;;3.60;99.90;;;;;;5136581;28;20400;-78
2024/01/05 10:38:50;;;;;;;22.10;10.10;;;3.70;99.90;;;;;;5113676;28;20190;-79
2024/01/05 10:41:18;;;;;;;23.55;10.13;;;4.80;99.90;;;;;;5116185;28;20040;-79
2024/01/05 10:43:46;;;;;;;23.08;9.48;;;3.80;99.90;;;;;;5119301;28;20080;-79
2024/01/05 10:46:20;;;;;;;19.75;9.85;;;4.20;99.90;;;;;;5129851;28;20040;-79
2024/01/05 10:48:47;;;;;;;21.05;10.32;;;3.90;99.90;;;;;;5126183;28;20031;-78
2024/01/05 10:51:22;;;;;;;19.88;10.10;;;4.00;99.90;;;;;;5121943;28;20038;-79
2024/01/05 10:53:50;;;;;;;25.85;10.30;;;3.80;99.90;;;;;;5115808;28;20035;-79
2024/01/05 10:56:19;;;;;;;20.27;10.45;;;3.80;99.90;;;;;;5143524;28;20100;-79
2024/01/05 10:58:49;;;;;;;24.52;10.20;;;3.80;99.90;;;;;;5125485;28;20469;-79
2024/01/05 11:01:21;;;;;;;20.27;9.55;;;3.80;99.90;;;;;;5118038;28;20047;-79
2024/01/05 11:03:50;;;;;;;17.95;9.90;;;3.80;99.90;;;;;;5114820;28;20577;-79
2024/01/05 11:06:18;;;;;;;23.13;9.85;;;4.20;99.90;;;;;;5116981;28;20056;-79
2024/01/05 11:08:51;;;;;;;20.83;9.15;;;4.10;99.90;;;;;;5118512;28;20123;-79
2024/01/05 11:11:34;;;;;;;19.92;9.82;;;4.80;99.90;;;;;;5111347;28;20059;-79
2024/01/05 11:14:01;;;;;;;16.38;9.18;;;3.80;99.90;;;;;;5142950;28;20396;-78
2024/01/05 11:16:45;;;;;;;19.77;9.43;;;4.70;99.90;;;;;;5126349;28;20119;-79
2024/01/05 11:19:50;;;;;;;20.60;9.07;;;3.90;99.90;;;;;;5126372;28;20071;-79
2024/01/05 11:22:27;;;;;;;21.02;9.30;;;3.90;99.90;;;;;;5127272;28;20131;-79
2024/01/05 11:24:55;;;;;;;16.75;8.73;;;3.90;99.90;;;;;;5111161;28;20209;-79
2024/01/05 11:27:30;;;;;;;17.10;9.32;;;4.00;99.90;;;;;;5130342;28;20506;-79
2024/01/05 11:29:57;;;;;;;17.70;8.98;;;4.00;99.90;;;;;;5131019;28;20039;-79
2024/01/05 11:32:38;;;;;;;17.58;8.95;;;5.00;99.90;;;;;;5115183;28;20027;-79
2024/01/05 11:35:24;;;;;;;18.75;8.05;;;4.10;99.90;;;;;;5118613;28;20396;-79
2024/01/05 11:37:51;;;;;;;17.88;8.77;;;4.10;99.90;;;;;;5112234;28;20119;-79
2024/01/05 11:40:28;;;;;;;19.42;8.93;;;5.00;99.90;;;;;;5146590;28;20051;-79
2024/01/05 11:42:58;;;;;;;17.63;8.43;;;4.20;99.90;;;;;;5126488;28;20031;-79
2024/01/05 11:45:43;;;;;;;15.27;7.28;;;5.00;99.90;;;;;;5123032;28;20035;-79
2024/01/05 11:48:30;;;;;;;12.20;7.07;;;4.10;99.90;;;;;;5127590;28;20120;-79
2024/01/05 11:50:57;;;;;;;14.70;7.90;;;4.10;99.90;;;;;;5137920;28;20040;-79
2024/01/05 11:53:24;;;;;;;15.23;7.63;;;4.10;99.90;;;;;;5121929;28;20032;-79
2024/01/05 11:55:56;;;;;;;14.57;7.35;;;4.10;99.90;;;;;;5139673;28;20031;-79
2024/01/05 11:58:38;;;;;;;14.50;6.82;;;5.10;99.90;;;;;;5116573;28;20042;-79
2024/01/05 12:01:07;;;;;;;12.85;6.85;;;4.30;99.90;;;;;;5121407;28;20134;-79
2024/01/05 12:03:34;;;;;;;12.77;6.70;;;4.10;99.90;;;;;;5122601;28;20054;-80
2024/01/05 12:06:06;;;;;;;12.43;6.40;;;4.10;99.90;;;;;;5124021;28;20056;-79
2024/01/05 12:08:33;;;;;;;12.32;6.05;;;4.00;99.90;;;;;;5120284;28;20043;-79
2024/01/05 12:11:05;;;;;;;20.33;7.30;;;4.10;99.90;;;;;;5113194;28;20443;-79
2024/01/05 12:13:34;;;;;;;15.55;6.95;;;4.10;99.90;;;;;;5119559;28;20081;-79
2024/01/05 12:16:05;;;;;;;15.65;7.18;;;4.90;99.90;;;;;;5139066;28;20036;-79
2024/01/05 12:18:33;;;;;;;14.20;7.15;;;4.40;99.90;;;;;;5110414;28;20075;-79
2024/01/05 12:21:01;;;;;;;17.67;7.60;;;4.10;99.90;;;;;;5140667;28;20051;-79
2024/01/05 12:23:29;;;;;;;14.45;6.70;;;4.10;99.90;;;;;;5121089;28;20077;-79
2024/01/05 12:26:03;;;;;;;13.10;7.22;;;4.10;99.90;;;;;;5110488;28;20040;-79
2024/01/05 12:28:31;;;;;;;15.45;6.63;;;4.10;99.90;;;;;;5120054;28;20164;-79
2024/01/05 12:30:58;;;;;;;15.88;6.68;;;4.10;99.90;;;;;;5145095;28;20035;-79
2024/01/05 12:33:26;;;;;;;14.23;6.90;;;4.10;99.90;;;;;;5109992;28;20032;-79
2024/01/05 12:35:54;;;;;;;15.68;6.65;;;4.10;99.90;;;;;;5135209;28;20040;-82
2024/01/05 12:38:25;;;;;;;15.57;7.10;;;4.10;99.90;;;;;;5129663;28;20039;-82
2024/01/05 12:40:53;;;;;;;13.25;7.07;;;4.10;99.90;;;;;;5118834;28;20075;-82
2024/01/05 12:43:20;;;;;;;13.68;6.78;;;4.00;99.90;;;;;;5122767;28;20035;-82
2024/01/05 12:45:48;;;;;;;12.70;6.55;;;4.10;99.90;;;;;;5125485;28;20674;-82
2024/01/05 12:48:15;;;;;;;14.40;6.82;;;4.10;99.90;;;;;;5115235;28;20040;-82